sensor_id;sensor_type;location;lat;lon;timestamp;P1;durP1;ratioP1;P2;durP2;ratioP2
71038;SDS011;58692;43.212;27.908;2022-08-18T00:01:03;25.27;;;13.25;;
71038;SDS011;58692;43.212;27.908;2022-08-18T00:03:29;20.63;;;14.85;;
71038;SDS011;58692;43.212;27.908;2022-08-18T00:05:55;24.25;;;16.38;;
71038;SDS011;58692;43.212;27.908;2022-08-18T00:08:20;26.43;;;16.60;;
71038;SDS011;58692;43.212;27.908;2022-08-18T00:10:46;27.40;;;16.08;;
71038;SDS011;58692;43.212;27.908;2022-08-18T00:13:11;28.37;;;15.13;;
71038;SDS011;58692;43.212;27.908;2022-08-18T00:15:37;23.80;;;14.70;;
71038;SDS011;58692;43.212;27.908;2022-08-18T00:18:02;28.30;;;15.32;;
71038;SDS011;58692;43.212;27.908;2022-08-18T00:20:28;20.70;;;13.60;;
71038;SDS011;58692;43.212;27.908;2022-08-18T00:22:54;24.02;;;12.75;;
71038;SDS011;58692;43.212;27.908;2022-08-18T00:25:21;21.97;;;12.93;;
71038;SDS011;58692;43.212;27.908;2022-08-18T00:27:47;18.77;;;11.93;;
71038;SDS011;58692;43.212;27.908;2022-08-18T00:30:15;17.98;;;12.80;;
71038;SDS011;58692;43.212;27.908;2022-08-18T00:32:43;21.35;;;14.25;;
71038;SDS011;58692;43.212;27.908;2022-08-18T00:35:15;21.70;;;13.67;;
71038;SDS011;58692;43.212;27.908;2022-08-18T00:37:45;27.48;;;14.75;;
71038;SDS011;58692;43.212;27.908;2022-08-18T00:40:13;20.80;;;14.48;;
71038;SDS011;58692;43.212;27.908;2022-08-18T00:42:45;20.23;;;13.68;;
71038;SDS011;58692;43.212;27.908;2022-08-18T00:45:15;24.65;;;15.55;;
71038;SDS011;58692;43.212;27.908;2022-08-18T00:47:44;23.70;;;15.50;;
71038;SDS011;58692;43.212;27.908;2022-08-18T00:50:11;24.10;;;16.05;;
71038;SDS011;58692;43.212;27.908;2022-08-18T00:52:45;26.05;;;16.50;;
71038;SDS011;58692;43.212;27.908;2022-08-18T00:55:18;29.02;;;17.27;;
71038;SDS011;58692;43.212;27.908;2022-08-18T00:57:45;26.25;;;16.77;;
71038;SDS011;58692;43.212;27.908;2022-08-18T01:00:14;26.13;;;17.40;;
71038;SDS011;58692;43.212;27.908;2022-08-18T01:02:44;25.25;;;17.23;;
71038;SDS011;58692;43.212;27.908;2022-08-18T01:07:58;27.15;;;17.30;;
71038;SDS011;58692;43.212;27.908;2022-08-18T01:10:24;28.93;;;17.50;;
71038;SDS011;58692;43.212;27.908;2022-08-18T01:12:52;29.88;;;17.50;;
71038;SDS011;58692;43.212;27.908;2022-08-18T01:15:20;26.70;;;18.13;;
71038;SDS011;58692;43.212;27.908;2022-08-18T01:17:47;29.77;;;18.77;;
71038;SDS011;58692;43.212;27.908;2022-08-18T01:20:29;26.73;;;17.58;;
71038;SDS011;58692;43.212;27.908;2022-08-18T01:23:16;25.23;;;17.23;;
71038;SDS011;58692;43.212;27.908;2022-08-18T01:25:43;26.23;;;16.42;;
71038;SDS011;58692;43.212;27.908;2022-08-18T01:28:26;27.92;;;16.98;;
71038;SDS011;58692;43.212;27.908;2022-08-18T01:30:54;25.92;;;17.27;;
71038;SDS011;58692;43.212;27.908;2022-08-18T01:33:23;26.27;;;16.27;;
71038;SDS011;58692;43.212;27.908;2022-08-18T01:35:51;26.40;;;15.33;;
71038;SDS011;58692;43.212;27.908;2022-08-18T01:38:19;23.13;;;16.08;;
71038;SDS011;58692;43.212;27.908;2022-08-18T01:40:49;26.70;;;16.58;;
71038;SDS011;58692;43.212;27.908;2022-08-18T01:43:15;28.05;;;15.73;;
71038;SDS011;58692;43.212;27.908;2022-08-18T01:45:41;26.75;;;16.65;;
71038;SDS011;58692;43.212;27.908;2022-08-18T01:48:07;25.03;;;15.73;;
71038;SDS011;58692;43.212;27.908;2022-08-18T01:50:33;24.90;;;15.40;;
71038;SDS011;58692;43.212;27.908;2022-08-18T01:53:00;25.23;;;15.43;;
71038;SDS011;58692;43.212;27.908;2022-08-18T01:55:31;23.25;;;15.25;;
71038;SDS011;58692;43.212;27.908;2022-08-18T01:57:58;21.93;;;14.70;;
71038;SDS011;58692;43.212;27.908;2022-08-18T02:00:25;25.95;;;16.25;;
71038;SDS011;58692;43.212;27.908;2022-08-18T02:02:51;26.10;;;15.05;;
71038;SDS011;58692;43.212;27.908;2022-08-18T02:05:19;24.63;;;16.43;;
71038;SDS011;58692;43.212;27.908;2022-08-18T02:07:48;23.83;;;15.90;;
71038;SDS011;58692;43.212;27.908;2022-08-18T02:10:14;20.80;;;14.93;;
71038;SDS011;58692;43.212;27.908;2022-08-18T02:12:42;23.67;;;15.30;;
71038;SDS011;58692;43.212;27.908;2022-08-18T02:15:08;26.40;;;15.77;;
71038;SDS011;58692;43.212;27.908;2022-08-18T02:17:37;22.85;;;15.10;;
71038;SDS011;58692;43.212;27.908;2022-08-18T02:20:05;22.88;;;14.82;;
71038;SDS011;58692;43.212;27.908;2022-08-18T02:22:33;22.17;;;14.63;;
71038;SDS011;58692;43.212;27.908;2022-08-18T02:24:58;21.53;;;14.50;;
71038;SDS011;58692;43.212;27.908;2022-08-18T02:27:25;20.70;;;14.60;;
71038;SDS011;58692;43.212;27.908;2022-08-18T02:29:51;22.77;;;14.05;;
71038;SDS011;58692;43.212;27.908;2022-08-18T02:32:17;21.17;;;15.10;;
71038;SDS011;58692;43.212;27.908;2022-08-18T02:34:42;23.07;;;14.63;;
71038;SDS011;58692;43.212;27.908;2022-08-18T02:37:08;22.90;;;14.10;;
71038;SDS011;58692;43.212;27.908;2022-08-18T02:39:35;20.25;;;13.48;;
71038;SDS011;58692;43.212;27.908;2022-08-18T02:42:03;21.75;;;15.45;;
71038;SDS011;58692;43.212;27.908;2022-08-18T02:44:30;19.83;;;14.67;;
71038;SDS011;58692;43.212;27.908;2022-08-18T02:46:56;21.77;;;15.15;;
71038;SDS011;58692;43.212;27.908;2022-08-18T02:49:22;19.77;;;14.45;;
71038;SDS011;58692;43.212;27.908;2022-08-18T02:51:50;24.33;;;14.88;;
71038;SDS011;58692;43.212;27.908;2022-08-18T02:54:17;19.13;;;13.88;;
71038;SDS011;58692;43.212;27.908;2022-08-18T02:56:44;22.00;;;14.23;;
71038;SDS011;58692;43.212;27.908;2022-08-18T02:59:13;19.63;;;15.10;;
71038;SDS011;58692;43.212;27.908;2022-08-18T03:01:43;21.10;;;14.95;;
71038;SDS011;58692;43.212;27.908;2022-08-18T03:04:11;22.33;;;14.95;;
71038;SDS011;58692;43.212;27.908;2022-08-18T03:06:39;21.63;;;14.55;;
71038;SDS011;58692;43.212;27.908;2022-08-18T03:09:06;31.63;;;21.63;;
71038;SDS011;58692;43.212;27.908;2022-08-18T03:11:34;42.03;;;30.17;;
71038;SDS011;58692;43.212;27.908;2022-08-18T03:14:00;34.45;;;23.95;;
71038;SDS011;58692;43.212;27.908;2022-08-18T03:16:27;26.75;;;19.42;;
71038;SDS011;58692;43.212;27.908;2022-08-18T03:18:57;26.53;;;17.40;;
71038;SDS011;58692;43.212;27.908;2022-08-18T03:21:24;19.50;;;15.13;;
71038;SDS011;58692;43.212;27.908;2022-08-18T03:23:52;20.67;;;14.82;;
71038;SDS011;58692;43.212;27.908;2022-08-18T03:26:19;20.20;;;14.18;;
71038;SDS011;58692;43.212;27.908;2022-08-18T03:28:48;21.05;;;13.73;;
71038;SDS011;58692;43.212;27.908;2022-08-18T03:31:15;19.93;;;13.27;;
71038;SDS011;58692;43.212;27.908;2022-08-18T03:33:43;20.63;;;14.52;;
71038;SDS011;58692;43.212;27.908;2022-08-18T03:36:10;23.17;;;15.18;;
71038;SDS011;58692;43.212;27.908;2022-08-18T03:38:38;22.92;;;16.08;;
71038;SDS011;58692;43.212;27.908;2022-08-18T03:41:05;23.48;;;16.35;;
71038;SDS011;58692;43.212;27.908;2022-08-18T03:43:33;21.83;;;15.77;;
71038;SDS011;58692;43.212;27.908;2022-08-18T03:46:00;23.33;;;15.82;;
71038;SDS011;58692;43.212;27.908;2022-08-18T03:48:27;22.80;;;16.25;;
71038;SDS011;58692;43.212;27.908;2022-08-18T03:50:53;27.15;;;16.70;;
71038;SDS011;58692;43.212;27.908;2022-08-18T03:53:18;28.53;;;17.33;;
71038;SDS011;58692;43.212;27.908;2022-08-18T03:55:44;28.83;;;18.23;;
71038;SDS011;58692;43.212;27.908;2022-08-18T03:58:10;28.47;;;18.07;;
71038;SDS011;58692;43.212;27.908;2022-08-18T04:00:39;31.58;;;19.80;;
71038;SDS011;58692;43.212;27.908;2022-08-18T04:03:05;28.13;;;19.13;;
71038;SDS011;58692;43.212;27.908;2022-08-18T04:05:32;32.63;;;19.70;;
71038;SDS011;58692;43.212;27.908;2022-08-18T04:08:02;29.30;;;18.57;;
71038;SDS011;58692;43.212;27.908;2022-08-18T04:10:30;25.90;;;18.23;;
71038;SDS011;58692;43.212;27.908;2022-08-18T04:12:55;26.73;;;16.83;;
71038;SDS011;58692;43.212;27.908;2022-08-18T04:15:21;22.17;;;16.05;;
71038;SDS011;58692;43.212;27.908;2022-08-18T04:17:47;24.15;;;16.00;;
71038;SDS011;58692;43.212;27.908;2022-08-18T04:20:12;26.83;;;16.37;;
71038;SDS011;58692;43.212;27.908;2022-08-18T04:22:38;22.03;;;16.07;;
71038;SDS011;58692;43.212;27.908;2022-08-18T04:25:05;24.60;;;15.88;;
71038;SDS011;58692;43.212;27.908;2022-08-18T04:27:33;22.90;;;15.63;;
71038;SDS011;58692;43.212;27.908;2022-08-18T04:30:00;22.20;;;14.68;;
71038;SDS011;58692;43.212;27.908;2022-08-18T04:32:25;25.13;;;15.37;;
71038;SDS011;58692;43.212;27.908;2022-08-18T04:34:51;22.13;;;14.57;;
71038;SDS011;58692;43.212;27.908;2022-08-18T04:37:17;23.43;;;15.00;;
71038;SDS011;58692;43.212;27.908;2022-08-18T04:39:43;26.73;;;15.32;;
71038;SDS011;58692;43.212;27.908;2022-08-18T04:42:09;21.38;;;14.32;;
71038;SDS011;58692;43.212;27.908;2022-08-18T04:44:35;21.13;;;14.07;;
71038;SDS011;58692;43.212;27.908;2022-08-18T04:47:02;21.67;;;14.67;;
71038;SDS011;58692;43.212;27.908;2022-08-18T04:49:28;21.50;;;15.23;;
71038;SDS011;58692;43.212;27.908;2022-08-18T04:51:56;22.05;;;15.57;;
71038;SDS011;58692;43.212;27.908;2022-08-18T04:54:38;26.40;;;15.88;;
71038;SDS011;58692;43.212;27.908;2022-08-18T04:57:10;28.80;;;19.13;;
71038;SDS011;58692;43.212;27.908;2022-08-18T04:59:42;25.50;;;17.37;;
71038;SDS011;58692;43.212;27.908;2022-08-18T05:02:10;26.73;;;18.42;;
71038;SDS011;58692;43.212;27.908;2022-08-18T05:04:38;27.13;;;19.75;;
71038;SDS011;58692;43.212;27.908;2022-08-18T05:07:05;32.03;;;21.83;;
71038;SDS011;58692;43.212;27.908;2022-08-18T05:09:32;37.10;;;22.50;;
71038;SDS011;58692;43.212;27.908;2022-08-18T05:11:58;40.23;;;24.67;;
71038;SDS011;58692;43.212;27.908;2022-08-18T05:14:25;33.08;;;24.38;;
71038;SDS011;58692;43.212;27.908;2022-08-18T05:16:51;35.17;;;23.00;;
71038;SDS011;58692;43.212;27.908;2022-08-18T05:19:18;31.52;;;21.90;;
71038;SDS011;58692;43.212;27.908;2022-08-18T05:21:47;31.88;;;20.77;;
71038;SDS011;58692;43.212;27.908;2022-08-18T05:24:14;29.98;;;21.15;;
71038;SDS011;58692;43.212;27.908;2022-08-18T05:26:39;28.00;;;19.03;;
71038;SDS011;58692;43.212;27.908;2022-08-18T05:29:06;25.60;;;18.17;;
71038;SDS011;58692;43.212;27.908;2022-08-18T05:31:32;26.30;;;18.77;;
71038;SDS011;58692;43.212;27.908;2022-08-18T05:33:57;28.25;;;18.40;;
71038;SDS011;58692;43.212;27.908;2022-08-18T05:36:34;23.52;;;16.25;;
71038;SDS011;58692;43.212;27.908;2022-08-18T05:39:14;25.17;;;16.75;;
71038;SDS011;58692;43.212;27.908;2022-08-18T05:41:43;20.53;;;13.37;;
71038;SDS011;58692;43.212;27.908;2022-08-18T05:44:14;23.88;;;15.40;;
71038;SDS011;58692;43.212;27.908;2022-08-18T05:46:52;25.02;;;15.63;;
71038;SDS011;58692;43.212;27.908;2022-08-18T05:49:19;23.80;;;15.00;;
71038;SDS011;58692;43.212;27.908;2022-08-18T05:51:47;20.20;;;14.07;;
71038;SDS011;58692;43.212;27.908;2022-08-18T05:54:16;23.30;;;14.30;;
71038;SDS011;58692;43.212;27.908;2022-08-18T05:57:01;20.42;;;13.85;;
71038;SDS011;58692;43.212;27.908;2022-08-18T05:59:32;18.70;;;12.75;;
71038;SDS011;58692;43.212;27.908;2022-08-18T06:02:04;20.40;;;12.55;;
71038;SDS011;58692;43.212;27.908;2022-08-18T06:04:48;17.30;;;12.43;;
71038;SDS011;58692;43.212;27.908;2022-08-18T06:07:18;21.27;;;13.03;;
71038;SDS011;58692;43.212;27.908;2022-08-18T06:09:58;21.27;;;13.20;;
71038;SDS011;58692;43.212;27.908;2022-08-18T06:14:56;17.43;;;11.53;;
71038;SDS011;58692;43.212;27.908;2022-08-18T06:20:00;22.88;;;12.02;;
71038;SDS011;58692;43.212;27.908;2022-08-18T06:22:38;19.92;;;11.00;;
71038;SDS011;58692;43.212;27.908;2022-08-18T06:28:11;17.80;;;10.43;;
71038;SDS011;58692;43.212;27.908;2022-08-18T06:33:13;14.55;;;9.77;;
71038;SDS011;58692;43.212;27.908;2022-08-18T06:35:58;16.25;;;9.95;;
71038;SDS011;58692;43.212;27.908;2022-08-18T06:46:45;15.02;;;10.40;;
71038;SDS011;58692;43.212;27.908;2022-08-18T06:55:03;12.67;;;9.00;;
71038;SDS011;58692;43.212;27.908;2022-08-18T06:57:32;13.23;;;9.65;;
71038;SDS011;58692;43.212;27.908;2022-08-18T07:00:03;14.60;;;9.38;;
71038;SDS011;58692;43.212;27.908;2022-08-18T07:02:36;14.57;;;10.13;;
71038;SDS011;58692;43.212;27.908;2022-08-18T07:05:07;14.20;;;10.23;;
71038;SDS011;58692;43.212;27.908;2022-08-18T07:07:43;16.00;;;10.07;;
71038;SDS011;58692;43.212;27.908;2022-08-18T07:13:07;15.27;;;10.40;;
71038;SDS011;58692;43.212;27.908;2022-08-18T07:15:39;14.27;;;10.03;;
71038;SDS011;58692;43.212;27.908;2022-08-18T07:18:06;14.45;;;9.43;;
71038;SDS011;58692;43.212;27.908;2022-08-18T07:20:51;16.42;;;10.00;;
71038;SDS011;58692;43.212;27.908;2022-08-18T07:23:21;15.40;;;10.38;;
71038;SDS011;58692;43.212;27.908;2022-08-18T07:25:50;19.85;;;9.88;;
71038;SDS011;58692;43.212;27.908;2022-08-18T07:28:33;16.07;;;10.30;;
71038;SDS011;58692;43.212;27.908;2022-08-18T07:31:07;15.15;;;9.82;;
71038;SDS011;58692;43.212;27.908;2022-08-18T07:36:39;16.42;;;9.50;;
71038;SDS011;58692;43.212;27.908;2022-08-18T07:39:14;16.55;;;10.52;;
71038;SDS011;58692;43.212;27.908;2022-08-18T07:42:00;14.90;;;9.80;;
71038;SDS011;58692;43.212;27.908;2022-08-18T07:44:46;14.30;;;9.35;;
71038;SDS011;58692;43.212;27.908;2022-08-18T07:47:20;13.93;;;9.75;;
71038;SDS011;58692;43.212;27.908;2022-08-18T07:49:55;14.70;;;9.88;;
71038;SDS011;58692;43.212;27.908;2022-08-18T07:52:25;13.82;;;9.73;;
71038;SDS011;58692;43.212;27.908;2022-08-18T07:55:05;13.70;;;9.67;;
71038;SDS011;58692;43.212;27.908;2022-08-18T08:00:18;13.45;;;9.90;;
71038;SDS011;58692;43.212;27.908;2022-08-18T08:11:08;14.95;;;9.95;;
71038;SDS011;58692;43.212;27.908;2022-08-18T08:14:04;14.10;;;9.65;;
71038;SDS011;58692;43.212;27.908;2022-08-18T08:16:48;14.13;;;9.77;;
71038;SDS011;58692;43.212;27.908;2022-08-18T08:22:03;15.98;;;9.07;;
71038;SDS011;58692;43.212;27.908;2022-08-18T08:24:40;15.65;;;9.73;;
71038;SDS011;58692;43.212;27.908;2022-08-18T08:27:18;14.48;;;9.63;;
71038;SDS011;58692;43.212;27.908;2022-08-18T08:29:49;14.60;;;9.47;;
71038;SDS011;58692;43.212;27.908;2022-08-18T08:34:52;16.23;;;9.20;;
71038;SDS011;58692;43.212;27.908;2022-08-18T08:37:32;13.17;;;9.40;;
71038;SDS011;58692;43.212;27.908;2022-08-18T08:45:46;14.80;;;10.10;;
71038;SDS011;58692;43.212;27.908;2022-08-18T08:48:27;12.85;;;8.80;;
71038;SDS011;58692;43.212;27.908;2022-08-18T08:50:58;16.73;;;9.60;;
71038;SDS011;58692;43.212;27.908;2022-08-18T08:53:31;12.70;;;9.38;;
71038;SDS011;58692;43.212;27.908;2022-08-18T08:56:02;15.85;;;9.60;;
71038;SDS011;58692;43.212;27.908;2022-08-18T09:06:52;15.18;;;9.98;;
71038;SDS011;58692;43.212;27.908;2022-08-18T09:23:37;14.05;;;9.40;;
71038;SDS011;58692;43.212;27.908;2022-08-18T09:28:52;14.70;;;9.27;;
71038;SDS011;58692;43.212;27.908;2022-08-18T09:31:21;13.30;;;9.87;;
71038;SDS011;58692;43.212;27.908;2022-08-18T09:41:39;14.63;;;9.80;;
71038;SDS011;58692;43.212;27.908;2022-08-18T09:44:55;14.55;;;10.25;;
71038;SDS011;58692;43.212;27.908;2022-08-18T09:55:51;12.00;;;9.13;;
71038;SDS011;58692;43.212;27.908;2022-08-18T10:04:18;14.40;;;9.43;;
71038;SDS011;58692;43.212;27.908;2022-08-18T10:12:20;13.75;;;9.13;;
71038;SDS011;58692;43.212;27.908;2022-08-18T10:17:47;12.47;;;9.57;;
71038;SDS011;58692;43.212;27.908;2022-08-18T10:20:26;15.10;;;9.90;;
71038;SDS011;58692;43.212;27.908;2022-08-18T10:22:57;15.38;;;9.88;;
71038;SDS011;58692;43.212;27.908;2022-08-18T10:25:32;12.75;;;9.27;;
71038;SDS011;58692;43.212;27.908;2022-08-18T10:27:58;13.90;;;9.97;;
71038;SDS011;58692;43.212;27.908;2022-08-18T10:32:55;12.25;;;9.60;;
71038;SDS011;58692;43.212;27.908;2022-08-18T10:40:55;13.93;;;8.70;;
71038;SDS011;58692;43.212;27.908;2022-08-18T10:43:42;15.15;;;9.68;;
71038;SDS011;58692;43.212;27.908;2022-08-18T10:46:14;12.23;;;9.20;;
71038;SDS011;58692;43.212;27.908;2022-08-18T10:48:55;13.93;;;9.70;;
71038;SDS011;58692;43.212;27.908;2022-08-18T10:57:15;14.65;;;9.27;;
71038;SDS011;58692;43.212;27.908;2022-08-18T10:59:55;12.30;;;8.82;;
71038;SDS011;58692;43.212;27.908;2022-08-18T11:02:35;14.40;;;9.88;;
71038;SDS011;58692;43.212;27.908;2022-08-18T11:05:07;17.02;;;9.77;;
71038;SDS011;58692;43.212;27.908;2022-08-18T11:07:35;13.80;;;9.80;;
71038;SDS011;58692;43.212;27.908;2022-08-18T11:13:04;14.15;;;9.43;;
71038;SDS011;58692;43.212;27.908;2022-08-18T11:18:46;12.60;;;9.10;;
71038;SDS011;58692;43.212;27.908;2022-08-18T11:21:22;13.87;;;9.00;;
71038;SDS011;58692;43.212;27.908;2022-08-18T11:26:46;12.85;;;9.30;;
71038;SDS011;58692;43.212;27.908;2022-08-18T11:29:30;12.43;;;9.35;;
71038;SDS011;58692;43.212;27.908;2022-08-18T11:39:47;13.07;;;9.43;;
71038;SDS011;58692;43.212;27.908;2022-08-18T11:42:15;14.68;;;9.88;;
71038;SDS011;58692;43.212;27.908;2022-08-18T11:44:42;13.00;;;8.75;;
71038;SDS011;58692;43.212;27.908;2022-08-18T11:47:17;13.07;;;9.50;;
71038;SDS011;58692;43.212;27.908;2022-08-18T11:49:51;15.32;;;9.70;;
71038;SDS011;58692;43.212;27.908;2022-08-18T11:52:26;13.85;;;9.65;;
71038;SDS011;58692;43.212;27.908;2022-08-18T11:55:03;19.13;;;10.35;;
71038;SDS011;58692;43.212;27.908;2022-08-18T12:03:02;14.75;;;10.50;;
71038;SDS011;58692;43.212;27.908;2022-08-18T12:08:31;16.48;;;10.48;;
71038;SDS011;58692;43.212;27.908;2022-08-18T12:11:03;15.02;;;10.88;;
71038;SDS011;58692;43.212;27.908;2022-08-18T12:13:31;16.20;;;10.90;;
71038;SDS011;58692;43.212;27.908;2022-08-18T12:18:54;17.98;;;11.60;;
71038;SDS011;58692;43.212;27.908;2022-08-18T12:21:20;15.23;;;10.80;;
71038;SDS011;58692;43.212;27.908;2022-08-18T12:23:45;15.23;;;11.33;;
71038;SDS011;58692;43.212;27.908;2022-08-18T12:26:13;16.30;;;11.00;;
71038;SDS011;58692;43.212;27.908;2022-08-18T12:28:39;18.20;;;10.98;;
71038;SDS011;58692;43.212;27.908;2022-08-18T12:31:05;17.33;;;10.93;;
71038;SDS011;58692;43.212;27.908;2022-08-18T12:33:31;15.20;;;10.57;;
71038;SDS011;58692;43.212;27.908;2022-08-18T12:35:58;15.48;;;10.63;;
71038;SDS011;58692;43.212;27.908;2022-08-18T12:38:24;17.58;;;11.25;;
71038;SDS011;58692;43.212;27.908;2022-08-18T12:40:50;15.57;;;10.97;;
71038;SDS011;58692;43.212;27.908;2022-08-18T12:43:15;15.70;;;11.75;;
71038;SDS011;58692;43.212;27.908;2022-08-18T12:45:41;16.00;;;11.50;;
71038;SDS011;58692;43.212;27.908;2022-08-18T12:48:07;16.40;;;11.77;;
71038;SDS011;58692;43.212;27.908;2022-08-18T12:50:33;16.37;;;11.20;;
71038;SDS011;58692;43.212;27.908;2022-08-18T12:53:00;15.45;;;11.48;;
71038;SDS011;58692;43.212;27.908;2022-08-18T12:55:27;15.23;;;10.98;;
71038;SDS011;58692;43.212;27.908;2022-08-18T12:57:57;16.83;;;11.70;;
71038;SDS011;58692;43.212;27.908;2022-08-18T13:00:23;15.93;;;11.73;;
71038;SDS011;58692;43.212;27.908;2022-08-18T13:02:49;15.45;;;10.43;;
71038;SDS011;58692;43.212;27.908;2022-08-18T13:05:16;13.25;;;9.80;;
71038;SDS011;58692;43.212;27.908;2022-08-18T13:07:42;15.57;;;11.52;;
71038;SDS011;58692;43.212;27.908;2022-08-18T13:10:08;18.13;;;11.67;;
71038;SDS011;58692;43.212;27.908;2022-08-18T13:12:34;17.52;;;10.80;;
71038;SDS011;58692;43.212;27.908;2022-08-18T13:14:59;15.07;;;10.73;;
71038;SDS011;58692;43.212;27.908;2022-08-18T13:17:25;17.17;;;11.77;;
71038;SDS011;58692;43.212;27.908;2022-08-18T13:19:51;15.07;;;11.50;;
71038;SDS011;58692;43.212;27.908;2022-08-18T13:22:16;16.65;;;11.32;;
71038;SDS011;58692;43.212;27.908;2022-08-18T13:24:42;19.48;;;10.48;;
71038;SDS011;58692;43.212;27.908;2022-08-18T13:27:08;14.83;;;10.07;;
71038;SDS011;58692;43.212;27.908;2022-08-18T13:29:34;17.13;;;10.87;;
71038;SDS011;58692;43.212;27.908;2022-08-18T13:31:59;15.50;;;10.07;;
71038;SDS011;58692;43.212;27.908;2022-08-18T13:34:34;14.27;;;9.30;;
71038;SDS011;58692;43.212;27.908;2022-08-18T13:36:59;14.38;;;9.60;;
71038;SDS011;58692;43.212;27.908;2022-08-18T13:39:25;13.70;;;8.57;;
71038;SDS011;58692;43.212;27.908;2022-08-18T13:41:52;15.15;;;9.65;;
71038;SDS011;58692;43.212;27.908;2022-08-18T13:44:19;15.57;;;9.05;;
71038;SDS011;58692;43.212;27.908;2022-08-18T13:46:46;13.15;;;8.80;;
71038;SDS011;58692;43.212;27.908;2022-08-18T13:49:13;13.63;;;8.80;;
71038;SDS011;58692;43.212;27.908;2022-08-18T13:51:40;15.82;;;8.80;;
71038;SDS011;58692;43.212;27.908;2022-08-18T13:54:08;11.77;;;8.98;;
71038;SDS011;58692;43.212;27.908;2022-08-18T13:56:38;12.02;;;8.88;;
71038;SDS011;58692;43.212;27.908;2022-08-18T13:59:03;13.30;;;9.20;;
71038;SDS011;58692;43.212;27.908;2022-08-18T14:01:29;13.10;;;9.18;;
71038;SDS011;58692;43.212;27.908;2022-08-18T14:03:56;13.02;;;9.20;;
71038;SDS011;58692;43.212;27.908;2022-08-18T14:06:21;13.13;;;9.50;;
71038;SDS011;58692;43.212;27.908;2022-08-18T14:08:48;15.20;;;9.18;;
71038;SDS011;58692;43.212;27.908;2022-08-18T14:11:14;15.20;;;10.48;;
71038;SDS011;58692;43.212;27.908;2022-08-18T14:13:39;16.50;;;11.37;;
71038;SDS011;58692;43.212;27.908;2022-08-18T14:16:05;18.38;;;10.40;;
71038;SDS011;58692;43.212;27.908;2022-08-18T14:18:32;16.80;;;10.57;;
71038;SDS011;58692;43.212;27.908;2022-08-18T14:20:57;16.20;;;10.03;;
71038;SDS011;58692;43.212;27.908;2022-08-18T14:23:39;16.83;;;10.43;;
71038;SDS011;58692;43.212;27.908;2022-08-18T14:26:19;13.10;;;9.25;;
71038;SDS011;58692;43.212;27.908;2022-08-18T14:29:00;15.90;;;9.68;;
71038;SDS011;58692;43.212;27.908;2022-08-18T14:31:26;15.23;;;9.77;;
71038;SDS011;58692;43.212;27.908;2022-08-18T14:33:51;17.63;;;9.83;;
71038;SDS011;58692;43.212;27.908;2022-08-18T14:36:17;13.65;;;9.85;;
71038;SDS011;58692;43.212;27.908;2022-08-18T14:38:44;13.43;;;9.82;;
71038;SDS011;58692;43.212;27.908;2022-08-18T14:41:11;14.30;;;9.70;;
71038;SDS011;58692;43.212;27.908;2022-08-18T14:43:37;14.02;;;9.75;;
71038;SDS011;58692;43.212;27.908;2022-08-18T14:46:03;13.32;;;9.50;;
71038;SDS011;58692;43.212;27.908;2022-08-18T14:48:31;14.97;;;9.33;;
71038;SDS011;58692;43.212;27.908;2022-08-18T14:51:01;14.23;;;10.15;;
71038;SDS011;58692;43.212;27.908;2022-08-18T14:53:30;12.88;;;9.02;;
71038;SDS011;58692;43.212;27.908;2022-08-18T14:55:59;14.38;;;9.85;;
71038;SDS011;58692;43.212;27.908;2022-08-18T14:58:26;14.60;;;9.73;;
71038;SDS011;58692;43.212;27.908;2022-08-18T15:00:53;13.52;;;9.57;;
71038;SDS011;58692;43.212;27.908;2022-08-18T15:03:21;17.60;;;9.60;;
71038;SDS011;58692;43.212;27.908;2022-08-18T15:05:48;14.85;;;9.13;;
71038;SDS011;58692;43.212;27.908;2022-08-18T15:08:13;14.37;;;9.10;;
71038;SDS011;58692;43.212;27.908;2022-08-18T15:10:39;13.15;;;8.15;;
71038;SDS011;58692;43.212;27.908;2022-08-18T15:13:06;14.57;;;9.20;;
71038;SDS011;58692;43.212;27.908;2022-08-18T15:15:33;14.32;;;9.15;;
71038;SDS011;58692;43.212;27.908;2022-08-18T15:17:59;14.20;;;9.10;;
71038;SDS011;58692;43.212;27.908;2022-08-18T15:20:25;15.43;;;8.47;;
71038;SDS011;58692;43.212;27.908;2022-08-18T15:22:51;14.30;;;9.37;;
71038;SDS011;58692;43.212;27.908;2022-08-18T15:25:32;14.27;;;9.38;;
71038;SDS011;58692;43.212;27.908;2022-08-18T15:28:14;15.00;;;9.63;;
71038;SDS011;58692;43.212;27.908;2022-08-18T15:30:49;14.43;;;9.23;;
71038;SDS011;58692;43.212;27.908;2022-08-18T15:33:16;15.18;;;9.55;;
71038;SDS011;58692;43.212;27.908;2022-08-18T15:35:43;15.70;;;9.50;;
71038;SDS011;58692;43.212;27.908;2022-08-18T15:38:12;15.90;;;10.23;;
71038;SDS011;58692;43.212;27.908;2022-08-18T15:40:46;16.85;;;10.00;;
71038;SDS011;58692;43.212;27.908;2022-08-18T15:43:13;15.02;;;9.55;;
71038;SDS011;58692;43.212;27.908;2022-08-18T15:45:41;15.20;;;9.88;;
71038;SDS011;58692;43.212;27.908;2022-08-18T15:48:09;15.17;;;10.50;;
71038;SDS011;58692;43.212;27.908;2022-08-18T15:50:35;14.10;;;10.50;;
71038;SDS011;58692;43.212;27.908;2022-08-18T15:53:01;15.65;;;10.80;;
71038;SDS011;58692;43.212;27.908;2022-08-18T15:55:30;17.50;;;10.90;;
71038;SDS011;58692;43.212;27.908;2022-08-18T15:57:57;15.88;;;10.30;;
71038;SDS011;58692;43.212;27.908;2022-08-18T16:00:24;16.67;;;10.95;;
71038;SDS011;58692;43.212;27.908;2022-08-18T16:02:55;15.68;;;10.23;;
71038;SDS011;58692;43.212;27.908;2022-08-18T16:05:23;13.70;;;9.45;;
71038;SDS011;58692;43.212;27.908;2022-08-18T16:07:53;15.17;;;10.07;;
71038;SDS011;58692;43.212;27.908;2022-08-18T16:10:24;14.45;;;9.05;;
71038;SDS011;58692;43.212;27.908;2022-08-18T16:12:52;13.45;;;8.93;;
71038;SDS011;58692;43.212;27.908;2022-08-18T16:15:19;14.27;;;9.73;;
71038;SDS011;58692;43.212;27.908;2022-08-18T16:17:46;14.13;;;9.00;;
71038;SDS011;58692;43.212;27.908;2022-08-18T16:20:14;14.90;;;8.80;;
71038;SDS011;58692;43.212;27.908;2022-08-18T16:22:39;14.15;;;9.25;;
71038;SDS011;58692;43.212;27.908;2022-08-18T16:25:06;13.98;;;9.32;;
71038;SDS011;58692;43.212;27.908;2022-08-18T16:27:33;14.43;;;9.57;;
71038;SDS011;58692;43.212;27.908;2022-08-18T16:30:00;16.77;;;9.98;;
71038;SDS011;58692;43.212;27.908;2022-08-18T16:32:29;15.60;;;9.95;;
71038;SDS011;58692;43.212;27.908;2022-08-18T16:34:55;14.88;;;9.90;;
71038;SDS011;58692;43.212;27.908;2022-08-18T16:37:22;14.38;;;10.13;;
71038;SDS011;58692;43.212;27.908;2022-08-18T16:39:48;13.93;;;9.53;;
71038;SDS011;58692;43.212;27.908;2022-08-18T16:42:13;17.00;;;10.17;;
71038;SDS011;58692;43.212;27.908;2022-08-18T16:44:39;16.53;;;9.70;;
71038;SDS011;58692;43.212;27.908;2022-08-18T16:47:04;14.80;;;9.82;;
71038;SDS011;58692;43.212;27.908;2022-08-18T16:49:31;13.48;;;9.68;;
71038;SDS011;58692;43.212;27.908;2022-08-18T16:51:58;15.07;;;9.73;;
71038;SDS011;58692;43.212;27.908;2022-08-18T16:54:26;13.65;;;9.00;;
71038;SDS011;58692;43.212;27.908;2022-08-18T16:56:53;14.35;;;10.05;;
71038;SDS011;58692;43.212;27.908;2022-08-18T16:59:18;16.50;;;9.83;;